Roubidoux Creek (Missouri), Polla Road (06928420)

StateMissouriLatestUnknown (21 cfs)
RiverRoubidoux CreekRatingObservedEstimated
Updated2021-03-03 13:30 (1 hour ago)Flood - The river is flooding. Obstacles can be treacherous or deadly. The river should be avoided at this stage for casual trips and definitely for the inexperienced. Trips should be attempted only with protective gear and equipment.Flood(none)(none)
Discharge21 cfs (median: 15 cfs)High - The river is high and potentially dangerous, especially for the young and / or inexperienced. Normal stream obstacles are sometimes difficult to navigate. Extended distances can be attempted, but canoe travel may not be advisable.High(none)(none)
Height1.09 feetGood - Conditions are ideal for a canoe or kayak. Boats typically will drag on fewer than one-quarter of riffles, if at all, and portages are unnecessary or rare. Normal float lengths can be attempted without a problem.Good(none)(none)
TrendSteady (falling over 24 hours)Low - River is low but can still be floated. Some riffles are okay but most come with significant dragging and might need a portage. Float lengths should be reduced to accommodate low flow, dragging, and portages.Low(none)(none)
USGSExternal icon USGS Site (External icon Google Maps)Poor - River is too low to float comfortably. Most or all riffles will drag or must be portaged and some obstacles (such as slick shelf rock) cause undue problems. Avoid the river at this stage for casual paddling trips.Poor(none)(none)

Trending Data

Plot Image

Trips for Roubidoux Creek (Missouri), Polla Road (06928420)

DateStartEndDistanceConditionDischargeHeightFishingDetails

A total of 0 rows are displayed.

Condition Descriptions

Fishing Conditions

Fish Species

Notes

Classic Trip List

The classic River Trips application is still available for use. It is updated with the new system using a data retrofit. It is no longer maintained. The original River Trips application is no longer updated (as of 1 Dec 2016) but can be checked for errors or for the condition of the data before it was converted to the new system.

Gauge Data Table

ObservationHeightDischargeMaximum
Discharge
Minimum
Discharge
Mean
Discharge
P05P10P20P25P50
(Median)
P75P80P90P95
2021-03-03 13:30 1.09 21 138 (2011) 0 (2014) 43 0 0 0 15 99 119 137
2021-03-03 12:30 1.10 21 138 (2011) 0 (2014) 43 0 0 0 15 99 119 137
2021-03-03 11:30 1.12 22 138 (2011) 0 (2014) 43 0 0 0 15 99 119 137
2021-03-03 10:30 1.09 21 138 (2011) 0 (2014) 43 0 0 0 15 99 119 137
2021-03-03 09:30 1.15 24 138 (2011) 0 (2014) 43 0 0 0 15 99 119 137
2021-03-03 08:30 1.16 25 138 (2011) 0 (2014) 43 0 0 0 15 99 119 137
2021-03-03 07:30 1.17 26 138 (2011) 0 (2014) 43 0 0 0 15 99 119 137
2021-03-03 06:30 1.18 26 138 (2011) 0 (2014) 43 0 0 0 15 99 119 137
2021-03-03 05:30 1.19 27 138 (2011) 0 (2014) 43 0 0 0 15 99 119 137
2021-03-03 04:30 1.21 29 138 (2011) 0 (2014) 43 0 0 0 15 99 119 137
2021-03-03 03:30 1.22 29 138 (2011) 0 (2014) 43 0 0 0 15 99 119 137
2021-03-03 02:30 1.22 29 138 (2011) 0 (2014) 43 0 0 0 15 99 119 137
2021-03-03 01:30 1.23 30 138 (2011) 0 (2014) 43 0 0 0 15 99 119 137
2021-03-03 00:30 1.24 31 138 (2011) 0 (2014) 43 0 0 0 15 99 119 137
2021-03-02 23:30 1.25 32 260 (2011) 0 (2014) 70 0 0 0 25 137 167 243
2021-03-02 22:30 1.25 32 260 (2011) 0 (2014) 70 0 0 0 25 137 167 243
2021-03-02 21:30 1.27 34 260 (2011) 0 (2014) 70 0 0 0 25 137 167 243
2021-03-02 20:30 1.27 34 260 (2011) 0 (2014) 70 0 0 0 25 137 167 243
2021-03-02 19:30 1.29 35 260 (2011) 0 (2014) 70 0 0 0 25 137 167 243
2021-03-02 18:30 1.29 35 260 (2011) 0 (2014) 70 0 0 0 25 137 167 243
2021-03-02 17:30 1.29 35 260 (2011) 0 (2014) 70 0 0 0 25 137 167 243
2021-03-02 16:30 1.29 35 260 (2011) 0 (2014) 70 0 0 0 25 137 167 243
2021-03-02 15:30 1.28 34 260 (2011) 0 (2014) 70 0 0 0 25 137 167 243
2021-03-02 14:30 1.32 38 260 (2011) 0 (2014) 70 0 0 0 25 137 167 243
2021-03-02 13:30 1.33 39 260 (2011) 0 (2014) 70 0 0 0 25 137 167 243
2021-03-02 12:30 1.33 39 260 (2011) 0 (2014) 70 0 0 0 25 137 167 243
2021-03-02 11:30 1.33 39 260 (2011) 0 (2014) 70 0 0 0 25 137 167 243
2021-03-02 10:30 1.34 40 260 (2011) 0 (2014) 70 0 0 0 25 137 167 243
2021-03-02 09:30 1.34 40 260 (2011) 0 (2014) 70 0 0 0 25 137 167 243
2021-03-02 08:30 1.36 42 260 (2011) 0 (2014) 70 0 0 0 25 137 167 243
2021-03-02 07:30 1.36 42 260 (2011) 0 (2014) 70 0 0 0 25 137 167 243
2021-03-02 06:30 1.35 41 260 (2011) 0 (2014) 70 0 0 0 25 137 167 243
2021-03-02 05:30 1.35 41 260 (2011) 0 (2014) 70 0 0 0 25 137 167 243
2021-03-02 04:30 1.35 41 260 (2011) 0 (2014) 70 0 0 0 25 137 167 243
2021-03-02 03:30 1.33 39 260 (2011) 0 (2014) 70 0 0 0 25 137 167 243
2021-03-02 02:30 1.32 38 260 (2011) 0 (2014) 70 0 0 0 25 137 167 243
2021-03-02 01:30 1.30 36 260 (2011) 0 (2014) 70 0 0 0 25 137 167 243
2021-03-02 00:30 1.27 34 260 (2011) 0 (2014) 70 0 0 0 25 137 167 243
2021-03-01 23:30 1.20 28 433 (2011) 0 (2014) 111 0 0 0 40 231 279 395
2021-03-01 22:30 1.09 21 433 (2011) 0 (2014) 111 0 0 0 40 231 279 395
2021-03-01 21:30 0.90 11 433 (2011) 0 (2014) 111 0 0 0 40 231 279 395
2021-03-01 20:30 0.75 6 433 (2011) 0 (2014) 111 0 0 0 40 231 279 395
2021-03-01 19:30 0.72 5 433 (2011) 0 (2014) 111 0 0 0 40 231 279 395
2021-03-01 18:30 0.71 5 433 (2011) 0 (2014) 111 0 0 0 40 231 279 395
2021-03-01 17:30 0.71 5 433 (2011) 0 (2014) 111 0 0 0 40 231 279 395
2021-03-01 16:30 0.71 5 433 (2011) 0 (2014) 111 0 0 0 40 231 279 395
2021-03-01 15:30 0.72 5 433 (2011) 0 (2014) 111 0 0 0 40 231 279 395
2021-03-01 14:30 0.71 5 433 (2011) 0 (2014) 111 0 0 0 40 231 279 395
2021-03-01 13:30 0.66 4 433 (2011) 0 (2014) 111 0 0 0 40 231 279 395
2021-03-01 12:30 0.70 5 433 (2011) 0 (2014) 111 0 0 0 40 231 279 395
2021-03-01 11:30 0.73 6 433 (2011) 0 (2014) 111 0 0 0 40 231 279 395
2021-03-01 10:30 0.73 6 433 (2011) 0 (2014) 111 0 0 0 40 231 279 395
2021-03-01 09:30 0.74 6 433 (2011) 0 (2014) 111 0 0 0 40 231 279 395
2021-03-01 08:30 0.74 6 433 (2011) 0 (2014) 111 0 0 0 40 231 279 395
2021-03-01 07:30 0.75 6 433 (2011) 0 (2014) 111 0 0 0 40 231 279 395
2021-03-01 06:30 0.76 6 433 (2011) 0 (2014) 111 0 0 0 40 231 279 395
2021-03-01 05:30 0.76 6 433 (2011) 0 (2014) 111 0 0 0 40 231 279 395
2021-03-01 04:30 0.77 7 433 (2011) 0 (2014) 111 0 0 0 40 231 279 395
2021-03-01 03:30 0.77 7 433 (2011) 0 (2014) 111 0 0 0 40 231 279 395
2021-03-01 02:30 0.76 6 433 (2011) 0 (2014) 111 0 0 0 40 231 279 395
2021-03-01 01:30 0.78 7 433 (2011) 0 (2014) 111 0 0 0 40 231 279 395
2021-03-01 00:30 0.79 7 433 (2011) 0 (2014) 111 0 0 0 40 231 279 395
2021-02-28 23:30 0.76 6 515 (2013) 0 (2014) 139 0 0 0 47 273 349 496
2021-02-28 22:30 0.78 7 515 (2013) 0 (2014) 139 0 0 0 47 273 349 496
2021-02-28 21:30 0.72 5 515 (2013) 0 (2014) 139 0 0 0 47 273 349 496
2021-02-28 20:30 0.77 7 515 (2013) 0 (2014) 139 0 0 0 47 273 349 496
2021-02-28 19:30 0.81 8 515 (2013) 0 (2014) 139 0 0 0 47 273 349 496
2021-02-28 18:30 0.76 6 515 (2013) 0 (2014) 139 0 0 0 47 273 349 496
2021-02-28 17:30 0.76 6 515 (2013) 0 (2014) 139 0 0 0 47 273 349 496
2021-02-28 16:30 0.81 8 515 (2013) 0 (2014) 139 0 0 0 47 273 349 496
2021-02-28 15:30 0.79 7 515 (2013) 0 (2014) 139 0 0 0 47 273 349 496
2021-02-28 14:30 0.80 8 515 (2013) 0 (2014) 139 0 0 0 47 273 349 496
2021-02-28 13:30 0.87 10 515 (2013) 0 (2014) 139 0 0 0 47 273 349 496
2021-02-28 12:30 0.85 9 515 (2013) 0 (2014) 139 0 0 0 47 273 349 496
2021-02-28 11:30 0.88 10 515 (2013) 0 (2014) 139 0 0 0 47 273 349 496
2021-02-28 10:30 0.89 11 515 (2013) 0 (2014) 139 0 0 0 47 273 349 496
2021-02-28 09:30 0.89 11 515 (2013) 0 (2014) 139 0 0 0 47 273 349 496
2021-02-28 08:30 0.89 11 515 (2013) 0 (2014) 139 0 0 0 47 273 349 496
2021-02-28 07:30 0.90 11 515 (2013) 0 (2014) 139 0 0 0 47 273 349 496
2021-02-28 06:30 0.91 12 515 (2013) 0 (2014) 139 0 0 0 47 273 349 496
2021-02-28 05:30 0.92 12 515 (2013) 0 (2014) 139 0 0 0 47 273 349 496
2021-02-28 04:30 0.93 12 515 (2013) 0 (2014) 139 0 0 0 47 273 349 496
2021-02-28 03:30 0.95 13 515 (2013) 0 (2014) 139 0 0 0 47 273 349 496
2021-02-28 02:30 0.94 13 515 (2013) 0 (2014) 139 0 0 0 47 273 349 496
2021-02-28 01:30 0.96 14 515 (2013) 0 (2014) 139 0 0 0 47 273 349 496
2021-02-28 00:30 0.93 12 515 (2013) 0 (2014) 139 0 0 0 47 273 349 496
2021-02-27 23:30 0.98 15 1180 (2013) 0 (2014) 235 0 0 0 31 335 546 1080
2021-02-27 22:30 0.99 15 1180 (2013) 0 (2014) 235 0 0 0 31 335 546 1080
2021-02-27 21:30 0.96 14 1180 (2013) 0 (2014) 235 0 0 0 31 335 546 1080
2021-02-27 20:30 0.98 15 1180 (2013) 0 (2014) 235 0 0 0 31 335 546 1080
2021-02-27 19:30 1.00 16 1180 (2013) 0 (2014) 235 0 0 0 31 335 546 1080
2021-02-27 18:30 0.99 15 1180 (2013) 0 (2014) 235 0 0 0 31 335 546 1080
2021-02-27 17:30 0.97 14 1180 (2013) 0 (2014) 235 0 0 0 31 335 546 1080
2021-02-27 16:30 0.98 15 1180 (2013) 0 (2014) 235 0 0 0 31 335 546 1080
2021-02-27 15:30 1.02 17 1180 (2013) 0 (2014) 235 0 0 0 31 335 546 1080
2021-02-27 14:30 1.03 17 1180 (2013) 0 (2014) 235 0 0 0 31 335 546 1080
2021-02-27 13:30 1.07 19 1180 (2013) 0 (2014) 235 0 0 0 31 335 546 1080
2021-02-27 12:30 1.03 17 1180 (2013) 0 (2014) 235 0 0 0 31 335 546 1080
2021-02-27 11:30 1.05 18 1180 (2013) 0 (2014) 235 0 0 0 31 335 546 1080
2021-02-27 10:30 1.05 18 1180 (2013) 0 (2014) 235 0 0 0 31 335 546 1080
2021-02-27 09:30 1.11 22 1180 (2013) 0 (2014) 235 0 0 0 31 335 546 1080
2021-02-27 08:30 1.13 23 1180 (2013) 0 (2014) 235 0 0 0 31 335 546 1080
2021-02-27 07:30 1.14 24 1180 (2013) 0 (2014) 235 0 0 0 31 335 546 1080
2021-02-27 06:30 1.15 24 1180 (2013) 0 (2014) 235 0 0 0 31 335 546 1080
2021-02-27 05:30 1.16 25 1180 (2013) 0 (2014) 235 0 0 0 31 335 546 1080
2021-02-27 04:30 1.18 26 1180 (2013) 0 (2014) 235 0 0 0 31 335 546 1080
2021-02-27 03:30 1.18 26 1180 (2013) 0 (2014) 235 0 0 0 31 335 546 1080
2021-02-27 02:30 1.20 28 1180 (2013) 0 (2014) 235 0 0 0 31 335 546 1080
2021-02-27 01:30 1.15 24 1180 (2013) 0 (2014) 235 0 0 0 31 335 546 1080
2021-02-27 00:30 1.22 29 1180 (2013) 0 (2014) 235 0 0 0 31 335 546 1080
2021-02-26 23:30 1.23 30 1760 (2018) 0 (2015) 338 0 0 0 42 645 706 1460
2021-02-26 22:30 1.24 31 1760 (2018) 0 (2015) 338 0 0 0 42 645 706 1460
2021-02-26 21:30 1.24 31 1760 (2018) 0 (2015) 338 0 0 0 42 645 706 1460
2021-02-26 20:30 1.25 32 1760 (2018) 0 (2015) 338 0 0 0 42 645 706 1460
2021-02-26 19:30 1.27 34 1760 (2018) 0 (2015) 338 0 0 0 42 645 706 1460
2021-02-26 18:30 1.26 33 1760 (2018) 0 (2015) 338 0 0 0 42 645 706 1460
2021-02-26 17:30 1.29 35 1760 (2018) 0 (2015) 338 0 0 0 42 645 706 1460
2021-02-26 16:30 1.28 34 1760 (2018) 0 (2015) 338 0 0 0 42 645 706 1460
2021-02-26 15:30 1.31 37 1760 (2018) 0 (2015) 338 0 0 0 42 645 706 1460
2021-02-26 14:30 1.31 37 1760 (2018) 0 (2015) 338 0 0 0 42 645 706 1460
2021-02-26 13:30 1.32 38 1760 (2018) 0 (2015) 338 0 0 0 42 645 706 1460
2021-02-26 12:30 1.33 39 1760 (2018) 0 (2015) 338 0 0 0 42 645 706 1460
2021-02-26 11:30 1.34 40 1760 (2018) 0 (2015) 338 0 0 0 42 645 706 1460
2021-02-26 10:30 1.37 43 1760 (2018) 0 (2015) 338 0 0 0 42 645 706 1460
2021-02-26 09:30 1.38 44 1760 (2018) 0 (2015) 338 0 0 0 42 645 706 1460
2021-02-26 08:30 1.40 46 1760 (2018) 0 (2015) 338 0 0 0 42 645 706 1460
2021-02-26 07:30 1.41 47 1760 (2018) 0 (2015) 338 0 0 0 42 645 706 1460
2021-02-26 06:30 1.42 48 1760 (2018) 0 (2015) 338 0 0 0 42 645 706 1460
2021-02-26 05:30 1.42 48 1760 (2018) 0 (2015) 338 0 0 0 42 645 706 1460
2021-02-26 04:30 1.44 50 1760 (2018) 0 (2015) 338 0 0 0 42 645 706 1460
2021-02-26 03:30 1.44 50 1760 (2018) 0 (2015) 338 0 0 0 42 645 706 1460
2021-02-26 02:30 1.46 53 1760 (2018) 0 (2015) 338 0 0 0 42 645 706 1460
2021-02-26 01:30 1.48 55 1760 (2018) 0 (2015) 338 0 0 0 42 645 706 1460
2021-02-26 00:30 1.50 58 1760 (2018) 0 (2015) 338 0 0 0 42 645 706 1460
2021-02-25 23:30 1.50 58 6240 (2018) 0 (2015) 761 0 0 0 3 746 1150 4840
2021-02-25 22:30 1.52 60 6240 (2018) 0 (2015) 761 0 0 0 3 746 1150 4840
2021-02-25 21:30 1.52 60 6240 (2018) 0 (2015) 761 0 0 0 3 746 1150 4840
2021-02-25 20:30 1.54 63 6240 (2018) 0 (2015) 761 0 0 0 3 746 1150 4840
2021-02-25 19:30 1.56 65 6240 (2018) 0 (2015) 761 0 0 0 3 746 1150 4840
2021-02-25 18:30 1.56 65 6240 (2018) 0 (2015) 761 0 0 0 3 746 1150 4840
2021-02-25 17:30 1.58 68 6240 (2018) 0 (2015) 761 0 0 0 3 746 1150 4840
2021-02-25 16:30 1.58 68 6240 (2018) 0 (2015) 761 0 0 0 3 746 1150 4840
2021-02-25 15:30 1.59 70 6240 (2018) 0 (2015) 761 0 0 0 3 746 1150 4840
2021-02-25 14:30 1.59 70 6240 (2018) 0 (2015) 761 0 0 0 3 746 1150 4840
2021-02-25 13:30 1.60 71 6240 (2018) 0 (2015) 761 0 0 0 3 746 1150 4840
2021-02-25 12:30 1.62 74 6240 (2018) 0 (2015) 761 0 0 0 3 746 1150 4840
2021-02-25 11:30 1.61 72 6240 (2018) 0 (2015) 761 0 0 0 3 746 1150 4840
2021-02-25 10:30 1.62 74 6240 (2018) 0 (2015) 761 0 0 0 3 746 1150 4840
2021-02-25 09:30 1.63 75 6240 (2018) 0 (2015) 761 0 0 0 3 746 1150 4840
2021-02-25 08:30 1.62 74 6240 (2018) 0 (2015) 761 0 0 0 3 746 1150 4840
2021-02-25 07:30 1.62 74 6240 (2018) 0 (2015) 761 0 0 0 3 746 1150 4840
2021-02-25 06:30 1.63 75 6240 (2018) 0 (2015) 761 0 0 0 3 746 1150 4840
2021-02-25 05:30 1.61 72 6240 (2018) 0 (2015) 761 0 0 0 3 746 1150 4840
2021-02-25 04:30 1.58 68 6240 (2018) 0 (2015) 761 0 0 0 3 746 1150 4840
2021-02-25 03:30 1.54 63 6240 (2018) 0 (2015) 761 0 0 0 3 746 1150 4840
2021-02-25 02:30 1.45 52 6240 (2018) 0 (2015) 761 0 0 0 3 746 1150 4840
2021-02-25 01:30 1.13 23 6240 (2018) 0 (2015) 761 0 0 0 3 746 1150 4840
2021-02-25 00:30 0.63 4 6240 (2018) 0 (2015) 761 0 0 0 3 746 1150 4840
2021-02-24 23:30 0.63 4 5580 (2018) 0 (2015) 536 0 0 0 3 123 345 4100
2021-02-24 22:30 0.56 2 5580 (2018) 0 (2015) 536 0 0 0 3 123 345 4100
2021-02-24 21:30 0.58 3 5580 (2018) 0 (2015) 536 0 0 0 3 123 345 4100
2021-02-24 20:30 0.63 4 5580 (2018) 0 (2015) 536 0 0 0 3 123 345 4100
2021-02-24 19:30 0.58 3 5580 (2018) 0 (2015) 536 0 0 0 3 123 345 4100
2021-02-24 18:30 0.57 3 5580 (2018) 0 (2015) 536 0 0 0 3 123 345 4100
2021-02-24 17:30 0.56 2 5580 (2018) 0 (2015) 536 0 0 0 3 123 345 4100
2021-02-24 16:30 0.56 2 5580 (2018) 0 (2015) 536 0 0 0 3 123 345 4100
2021-02-24 15:30 0.58 3 5580 (2018) 0 (2015) 536 0 0 0 3 123 345 4100
2021-02-24 14:30 0.62 3 5580 (2018) 0 (2015) 536 0 0 0 3 123 345 4100
2021-02-24 13:30 0.56 2 5580 (2018) 0 (2015) 536 0 0 0 3 123 345 4100
2021-02-24 12:30 0.56 2 5580 (2018) 0 (2015) 536 0 0 0 3 123 345 4100
2021-02-24 11:30 0.63 4 5580 (2018) 0 (2015) 536 0 0 0 3 123 345 4100
2021-02-24 10:30 0.62 3 5580 (2018) 0 (2015) 536 0 0 0 3 123 345 4100
2021-02-24 09:30 0.55 2 5580 (2018) 0 (2015) 536 0 0 0 3 123 345 4100
2021-02-24 08:30 0.62 3 5580 (2018) 0 (2015) 536 0 0 0 3 123 345 4100
2021-02-24 07:30 0.63 4 5580 (2018) 0 (2015) 536 0 0 0 3 123 345 4100
2021-02-24 06:30 0.63 4 5580 (2018) 0 (2015) 536 0 0 0 3 123 345 4100
2021-02-24 05:30 0.63 4 5580 (2018) 0 (2015) 536 0 0 0 3 123 345 4100
2021-02-24 04:30 0.63 4 5580 (2018) 0 (2015) 536 0 0 0 3 123 345 4100
2021-02-24 03:30 0.63 4 5580 (2018) 0 (2015) 536 0 0 0 3 123 345 4100
2021-02-24 02:30 0.63 4 5580 (2018) 0 (2015) 536 0 0 0 3 123 345 4100
2021-02-24 01:30 0.63 4 5580 (2018) 0 (2015) 536 0 0 0 3 123 345 4100
2021-02-24 00:30 0.63 4 5580 (2018) 0 (2015) 536 0 0 0 3 123 345 4100
2021-02-23 23:30 0.63 4 577 (2019) 0 (2015) 84 0 0 0 3 125 187 473
2021-02-23 22:30 0.64 4 577 (2019) 0 (2015) 84 0 0 0 3 125 187 473
2021-02-23 21:30 0.64 4 577 (2019) 0 (2015) 84 0 0 0 3 125 187 473
2021-02-23 20:30 0.64 4 577 (2019) 0 (2015) 84 0 0 0 3 125 187 473
2021-02-23 19:30 0.64 4 577 (2019) 0 (2015) 84 0 0 0 3 125 187 473
2021-02-23 18:30 0.64 4 577 (2019) 0 (2015) 84 0 0 0 3 125 187 473
2021-02-23 17:30 0.63 4 577 (2019) 0 (2015) 84 0 0 0 3 125 187 473
2021-02-23 16:30 0.63 4 577 (2019) 0 (2015) 84 0 0 0 3 125 187 473
2021-02-23 15:30 0.60 3 577 (2019) 0 (2015) 84 0 0 0 3 125 187 473
2021-02-23 14:30 0.57 3 577 (2019) 0 (2015) 84 0 0 0 3 125 187 473
2021-02-23 13:30 0.61 3 577 (2019) 0 (2015) 84 0 0 0 3 125 187 473
2021-02-23 12:30 0.64 4 577 (2019) 0 (2015) 84 0 0 0 3 125 187 473
2021-02-23 11:30 0.64 4 577 (2019) 0 (2015) 84 0 0 0 3 125 187 473
2021-02-23 10:30 0.64 4 577 (2019) 0 (2015) 84 0 0 0 3 125 187 473
2021-02-23 09:30 0.64 4 577 (2019) 0 (2015) 84 0 0 0 3 125 187 473
2021-02-23 08:30 0.64 4 577 (2019) 0 (2015) 84 0 0 0 3 125 187 473
2021-02-23 07:30 0.64 4 577 (2019) 0 (2015) 84 0 0 0 3 125 187 473
2021-02-23 06:30 0.64 4 577 (2019) 0 (2015) 84 0 0 0 3 125 187 473
2021-02-23 05:30 0.64 4 577 (2019) 0 (2015) 84 0 0 0 3 125 187 473
2021-02-23 04:30 0.64 4 577 (2019) 0 (2015) 84 0 0 0 3 125 187 473
2021-02-23 03:30 0.64 4 577 (2019) 0 (2015) 84 0 0 0 3 125 187 473
2021-02-23 02:30 0.64 4 577 (2019) 0 (2015) 84 0 0 0 3 125 187 473
2021-02-23 01:30 0.64 4 577 (2019) 0 (2015) 84 0 0 0 3 125 187 473
2021-02-23 00:30 0.64 4 577 (2019) 0 (2015) 84 0 0 0 3 125 187 473
2021-02-22 23:30 0.65 4 518 (2019) 0 (2016) 91 0 0 0 4 74 224 492
2021-02-22 22:30 0.64 4 518 (2019) 0 (2016) 91 0 0 0 4 74 224 492
2021-02-22 21:30 0.64 4 518 (2019) 0 (2016) 91 0 0 0 4 74 224 492
2021-02-22 20:30 0.65 4 518 (2019) 0 (2016) 91 0 0 0 4 74 224 492
2021-02-22 19:30 0.65 4 518 (2019) 0 (2016) 91 0 0 0 4 74 224 492
2021-02-22 18:30 0.65 4 518 (2019) 0 (2016) 91 0 0 0 4 74 224 492
2021-02-22 17:30 0.65 4 518 (2019) 0 (2016) 91 0 0 0 4 74 224 492
2021-02-22 16:30 0.66 4 518 (2019) 0 (2016) 91 0 0 0 4 74 224 492
2021-02-22 15:30 0.65 4 518 (2019) 0 (2016) 91 0 0 0 4 74 224 492
2021-02-22 14:30 0.65 4 518 (2019) 0 (2016) 91 0 0 0 4 74 224 492
2021-02-22 13:30 0.63 4 518 (2019) 0 (2016) 91 0 0 0 4 74 224 492
2021-02-22 12:30 0.66 4 518 (2019) 0 (2016) 91 0 0 0 4 74 224 492
2021-02-22 11:30 0.66 4 518 (2019) 0 (2016) 91 0 0 0 4 74 224 492
2021-02-22 10:30 0.65 4 518 (2019) 0 (2016) 91 0 0 0 4 74 224 492
2021-02-22 09:30 0.64 4 518 (2019) 0 (2016) 91 0 0 0 4 74 224 492
2021-02-22 08:30 0.65 4 518 (2019) 0 (2016) 91 0 0 0 4 74 224 492
2021-02-22 07:30 0.63 4 518 (2019) 0 (2016) 91 0 0 0 4 74 224 492
2021-02-22 06:30 0.64 4 518 (2019) 0 (2016) 91 0 0 0 4 74 224 492
2021-02-22 05:30 0.63 4 518 (2019) 0 (2016) 91 0 0 0 4 74 224 492
2021-02-22 04:30 0.59 3 518 (2019) 0 (2016) 91 0 0 0 4 74 224 492
2021-02-22 03:30 0.40 1 518 (2019) 0 (2016) 91 0 0 0 4 74 224 492
2021-02-22 02:30 0.63 4 518 (2019) 0 (2016) 91 0 0 0 4 74 224 492
2021-02-22 01:30 0.64 4 518 (2019) 0 (2016) 91 0 0 0 4 74 224 492
2021-02-22 00:30 0.62 3 518 (2019) 0 (2016) 91 0 0 0 4 74 224 492
2021-02-21 23:30 0.62 3 577 (2019) 0 (2016) 65 0 0 0 6 53 78 434
2021-02-21 22:30 0.62 3 577 (2019) 0 (2016) 65 0 0 0 6 53 78 434
2021-02-21 21:30 0.60 3 577 (2019) 0 (2016) 65 0 0 0 6 53 78 434
2021-02-21 20:30 0.57 3 577 (2019) 0 (2016) 65 0 0 0 6 53 78 434
2021-02-21 19:30 0.47 1 577 (2019) 0 (2016) 65 0 0 0 6 53 78 434
2021-02-21 18:30 0.49 2 577 (2019) 0 (2016) 65 0 0 0 6 53 78 434
2021-02-21 17:30 0.54 2 577 (2019) 0 (2016) 65 0 0 0 6 53 78 434
2021-02-21 16:30 0.63 4 577 (2019) 0 (2016) 65 0 0 0 6 53 78 434
2021-02-21 15:30 0.65 4 577 (2019) 0 (2016) 65 0 0 0 6 53 78 434
2021-02-21 14:30 0.65 4 577 (2019) 0 (2016) 65 0 0 0 6 53 78 434
2021-02-21 13:30 0.64 4 577 (2019) 0 (2016) 65 0 0 0 6 53 78 434
2021-02-21 12:30 0.60 3 577 (2019) 0 (2016) 65 0 0 0 6 53 78 434
2021-02-21 11:30 0.61 3 577 (2019) 0 (2016) 65 0 0 0 6 53 78 434
2021-02-21 10:30 0.61 3 577 (2019) 0 (2016) 65 0 0 0 6 53 78 434
2021-02-21 09:30 0.62 3 577 (2019) 0 (2016) 65 0 0 0 6 53 78 434
2021-02-21 08:30 0.62 3 577 (2019) 0 (2016) 65 0 0 0 6 53 78 434
2021-02-21 07:30 0.62 3 577 (2019) 0 (2016) 65 0 0 0 6 53 78 434
2021-02-21 06:30 0.63 4 577 (2019) 0 (2016) 65 0 0 0 6 53 78 434
2021-02-21 05:30 0.63 4 577 (2019) 0 (2016) 65 0 0 0 6 53 78 434
2021-02-21 04:30 0.63 4 577 (2019) 0 (2016) 65 0 0 0 6 53 78 434
2021-02-21 03:30 0.63 4 577 (2019) 0 (2016) 65 0 0 0 6 53 78 434
2021-02-21 02:30 0.62 3 577 (2019) 0 (2016) 65 0 0 0 6 53 78 434
2021-02-21 01:30 0.61 3 577 (2019) 0 (2016) 65 0 0 0 6 53 78 434
2021-02-21 00:30 0.61 3 577 (2019) 0 (2016) 65 0 0 0 6 53 78 434
2021-02-20 23:30 0.61 3 88 (2020) 0 (2015) 19 0 0 0 5 32 44 78
2021-02-20 22:30 0.60 3 88 (2020) 0 (2015) 19 0 0 0 5 32 44 78
2021-02-20 21:30 0.60 3 88 (2020) 0 (2015) 19 0 0 0 5 32 44 78
2021-02-20 20:30 0.60 3 88 (2020) 0 (2015) 19 0 0 0 5 32 44 78
2021-02-20 19:30 0.61 3 88 (2020) 0 (2015) 19 0 0 0 5 32 44 78
2021-02-20 18:30 0.60 3 88 (2020) 0 (2015) 19 0 0 0 5 32 44 78
2021-02-20 17:30 0.61 3 88 (2020) 0 (2015) 19 0 0 0 5 32 44 78
2021-02-20 16:30 0.61 3 88 (2020) 0 (2015) 19 0 0 0 5 32 44 78
2021-02-20 15:30 0.62 3 88 (2020) 0 (2015) 19 0 0 0 5 32 44 78
2021-02-20 14:30 0.62 3 88 (2020) 0 (2015) 19 0 0 0 5 32 44 78
2021-02-20 13:30 0.76 6 88 (2020) 0 (2015) 19 0 0 0 5 32 44 78
2021-02-20 12:30 0.51 2 88 (2020) 0 (2015) 19 0 0 0 5 32 44 78
2021-02-20 11:30 0.86 10 88 (2020) 0 (2015) 19 0 0 0 5 32 44 78
2021-02-20 10:30 0.62 3 88 (2020) 0 (2015) 19 0 0 0 5 32 44 78
2021-02-20 09:30 0.64 4 88 (2020) 0 (2015) 19 0 0 0 5 32 44 78
2021-02-20 08:30 0.63 4 88 (2020) 0 (2015) 19 0 0 0 5 32 44 78
2021-02-20 07:30 0.62 3 88 (2020) 0 (2015) 19 0 0 0 5 32 44 78
2021-02-20 06:30 0.61 3 88 (2020) 0 (2015) 19 0 0 0 5 32 44 78
2021-02-20 05:30 0.62 3 88 (2020) 0 (2015) 19 0 0 0 5 32 44 78
2021-02-20 04:30 0.63 4 88 (2020) 0 (2015) 19 0 0 0 5 32 44 78
2021-02-20 03:30 0.64 4 88 (2020) 0 (2015) 19 0 0 0 5 32 44 78
2021-02-20 02:30 0.65 4 88 (2020) 0 (2015) 19 0 0 0 5 32 44 78
2021-02-20 01:30 0.64 4 88 (2020) 0 (2015) 19 0 0 0 5 32 44 78
2021-02-20 00:30 0.63 4 88 (2020) 0 (2015) 19 0 0 0 5 32 44 78
2021-02-19 23:30 0.64 4 114 (2020) 0 (2015) 27 0 0 0 12 50 60 100
2021-02-19 22:30 0.65 4 114 (2020) 0 (2015) 27 0 0 0 12 50 60 100
2021-02-19 21:30 0.62 3 114 (2020) 0 (2015) 27 0 0 0 12 50 60 100
2021-02-19 20:30 0.63 4 114 (2020) 0 (2015) 27 0 0 0 12 50 60 100
2021-02-19 19:30 0.62 3 114 (2020) 0 (2015) 27 0 0 0 12 50 60 100
2021-02-19 18:30 0.62 3 114 (2020) 0 (2015) 27 0 0 0 12 50 60 100
2021-02-19 17:30 0.67 4 114 (2020) 0 (2015) 27 0 0 0 12 50 60 100
2021-02-19 16:30 0.68 5 114 (2020) 0 (2015) 27 0 0 0 12 50 60 100
2021-02-19 15:30 0.66 4 114 (2020) 0 (2015) 27 0 0 0 12 50 60 100
2021-02-19 14:30 0.61 3 114 (2020) 0 (2015) 27 0 0 0 12 50 60 100
2021-02-19 13:30 0.60 3 114 (2020) 0 (2015) 27 0 0 0 12 50 60 100
2021-02-19 12:30 0.61 3 114 (2020) 0 (2015) 27 0 0 0 12 50 60 100
2021-02-19 11:30 0.62 3 114 (2020) 0 (2015) 27 0 0 0 12 50 60 100
2021-02-19 10:30 0.63 4 114 (2020) 0 (2015) 27 0 0 0 12 50 60 100
2021-02-19 09:30 0.64 4 114 (2020) 0 (2015) 27 0 0 0 12 50 60 100
2021-02-19 08:30 0.65 4 114 (2020) 0 (2015) 27 0 0 0 12 50 60 100
2021-02-19 07:30 0.66 4 114 (2020) 0 (2015) 27 0 0 0 12 50 60 100
2021-02-19 06:30 0.63 4 114 (2020) 0 (2015) 27 0 0 0 12 50 60 100
2021-02-19 05:30 0.61 3 114 (2020) 0 (2015) 27 0 0 0 12 50 60 100
2021-02-19 04:30 0.61 3 114 (2020) 0 (2015) 27 0 0 0 12 50 60 100
2021-02-19 03:30 0.62 3 114 (2020) 0 (2015) 27 0 0 0 12 50 60 100
2021-02-19 02:30 0.63 4 114 (2020) 0 (2015) 27 0 0 0 12 50 60 100
2021-02-19 01:30 0.64 4 114 (2020) 0 (2015) 27 0 0 0 12 50 60 100
2021-02-19 00:30 0.64 4 114 (2020) 0 (2015) 27 0 0 0 12 50 60 100
2021-02-18 23:30 0.64 4 153 (2020) 0 (2016) 44 0 0 0 19 79 100 145
2021-02-18 22:30 0.65 4 153 (2020) 0 (2016) 44 0 0 0 19 79 100 145
2021-02-18 21:30 0.65 4 153 (2020) 0 (2016) 44 0 0 0 19 79 100 145
2021-02-18 20:30 0.65 4 153 (2020) 0 (2016) 44 0 0 0 19 79 100 145
2021-02-18 19:30 0.65 4 153 (2020) 0 (2016) 44 0 0 0 19 79 100 145
2021-02-18 18:30 0.65 4 153 (2020) 0 (2016) 44 0 0 0 19 79 100 145
2021-02-18 17:30 0.63 4 153 (2020) 0 (2016) 44 0 0 0 19 79 100 145
2021-02-18 16:30 0.63 4 153 (2020) 0 (2016) 44 0 0 0 19 79 100 145
2021-02-18 15:30 0.63 4 153 (2020) 0 (2016) 44 0 0 0 19 79 100 145
2021-02-18 14:30 0.64 4 153 (2020) 0 (2016) 44 0 0 0 19 79 100 145
2021-02-18 13:30 0.65 4 153 (2020) 0 (2016) 44 0 0 0 19 79 100 145
2021-02-18 12:30 0.66 4 153 (2020) 0 (2016) 44 0 0 0 19 79 100 145
2021-02-18 11:30 0.65 4 153 (2020) 0 (2016) 44 0 0 0 19 79 100 145
2021-02-18 10:30 0.65 4 153 (2020) 0 (2016) 44 0 0 0 19 79 100 145
2021-02-18 09:30 0.65 4 153 (2020) 0 (2016) 44 0 0 0 19 79 100 145
2021-02-18 08:30 0.66 4 153 (2020) 0 (2016) 44 0 0 0 19 79 100 145
2021-02-18 07:30 0.65 4 153 (2020) 0 (2016) 44 0 0 0 19 79 100 145
2021-02-18 06:30 0.65 4 153 (2020) 0 (2016) 44 0 0 0 19 79 100 145
2021-02-18 05:30 0.65 4 153 (2020) 0 (2016) 44 0 0 0 19 79 100 145
2021-02-18 04:30 0.64 4 153 (2020) 0 (2016) 44 0 0 0 19 79 100 145
2021-02-18 03:30 0.64 4 153 (2020) 0 (2016) 44 0 0 0 19 79 100 145
2021-02-18 02:30 0.64 4 153 (2020) 0 (2016) 44 0 0 0 19 79 100 145
2021-02-18 01:30 0.64 4 153 (2020) 0 (2016) 44 0 0 0 19 79 100 145
2021-02-18 00:30 0.64 4 153 (2020) 0 (2016) 44 0 0 0 19 79 100 145
2021-02-17 23:30 0.64 4 254 (2012) 0 (2017) 72 0 0 0 26 143 170 238
2021-02-17 22:30 0.64 4 254 (2012) 0 (2017) 72 0 0 0 26 143 170 238
2021-02-17 21:30 0.64 4 254 (2012) 0 (2017) 72 0 0 0 26 143 170 238
2021-02-17 20:30 0.64 4 254 (2012) 0 (2017) 72 0 0 0 26 143 170 238
2021-02-17 19:30 0.64 4 254 (2012) 0 (2017) 72 0 0 0 26 143 170 238
2021-02-17 18:30 0.64 4 254 (2012) 0 (2017) 72 0 0 0 26 143 170 238
2021-02-17 17:30 0.64 4 254 (2012) 0 (2017) 72 0 0 0 26 143 170 238
2021-02-17 16:30 0.65 4 254 (2012) 0 (2017) 72 0 0 0 26 143 170 238
2021-02-17 15:30 0.65 4 254 (2012) 0 (2017) 72 0 0 0 26 143 170 238
2021-02-17 14:30 0.65 4 254 (2012) 0 (2017) 72 0 0 0 26 143 170 238
2021-02-17 13:30 0.65 4 254 (2012) 0 (2017) 72 0 0 0 26 143 170 238
2021-02-17 12:30 0.65 4 254 (2012) 0 (2017) 72 0 0 0 26 143 170 238
2021-02-17 11:30 0.65 4 254 (2012) 0 (2017) 72 0 0 0 26 143 170 238
2021-02-17 10:30 0.65 4 254 (2012) 0 (2017) 72 0 0 0 26 143 170 238
2021-02-17 09:30 0.66 4 254 (2012) 0 (2017) 72 0 0 0 26 143 170 238
2021-02-17 08:30 0.67 4 254 (2012) 0 (2017) 72 0 0 0 26 143 170 238
2021-02-17 07:30 0.67 4 254 (2012) 0 (2017) 72 0 0 0 26 143 170 238
2021-02-17 06:30 254 (2012) 0 (2017) 72 0 0 0 26 143 170 238
2021-02-17 05:30 254 (2012) 0 (2017) 72 0 0 0 26 143 170 238
2021-02-17 04:30 254 (2012) 0 (2017) 72 0 0 0 26 143 170 238
2021-02-17 03:30 254 (2012) 0 (2017) 72 0 0 0 26 143 170 238
2021-02-17 02:30 254 (2012) 0 (2017) 72 0 0 0 26 143 170 238
2021-02-17 01:30 254 (2012) 0 (2017) 72 0 0 0 26 143 170 238
2021-02-17 00:30 254 (2012) 0 (2017) 72 0 0 0 26 143 170 238
2021-02-16 23:30 265 (2020) 0 (2017) 76 0 0 0 35 157 173 243
2021-02-16 22:30 265 (2020) 0 (2017) 76 0 0 0 35 157 173 243
2021-02-16 21:30 265 (2020) 0 (2017) 76 0 0 0 35 157 173 243
2021-02-16 20:30 265 (2020) 0 (2017) 76 0 0 0 35 157 173 243
2021-02-16 19:30 265 (2020) 0 (2017) 76 0 0 0 35 157 173 243
2021-02-16 18:30 265 (2020) 0 (2017) 76 0 0 0 35 157 173 243
2021-02-16 17:30 265 (2020) 0 (2017) 76 0 0 0 35 157 173 243
2021-02-16 16:30 265 (2020) 0 (2017) 76 0 0 0 35 157 173 243
2021-02-16 15:30 265 (2020) 0 (2017) 76 0 0 0 35 157 173 243
2021-02-16 14:30 265 (2020) 0 (2017) 76 0 0 0 35 157 173 243
2021-02-16 13:30 265 (2020) 0 (2017) 76 0 0 0 35 157 173 243
2021-02-16 12:30 265 (2020) 0 (2017) 76 0 0 0 35 157 173 243
2021-02-16 11:30 265 (2020) 0 (2017) 76 0 0 0 35 157 173 243
2021-02-16 10:30 265 (2020) 0 (2017) 76 0 0 0 35 157 173 243
2021-02-16 09:30 265 (2020) 0 (2017) 76 0 0 0 35 157 173 243
2021-02-16 08:30 265 (2020) 0 (2017) 76 0 0 0 35 157 173 243
2021-02-16 07:30 265 (2020) 0 (2017) 76 0 0 0 35 157 173 243
2021-02-16 06:30 265 (2020) 0 (2017) 76 0 0 0 35 157 173 243
2021-02-16 05:30 265 (2020) 0 (2017) 76 0 0 0 35 157 173 243
2021-02-16 04:30 265 (2020) 0 (2017) 76 0 0 0 35 157 173 243
2021-02-16 02:30 265 (2020) 0 (2017) 76 0 0 0 35 157 173 243
2021-02-16 01:30 265 (2020) 0 (2017) 76 0 0 0 35 157 173 243
2021-02-16 00:30 265 (2020) 0 (2017) 76 0 0 0 35 157 173 243
2021-02-15 23:30 377 (2020) 0 (2016) 85 0 0 0 2 201 269 356
2021-02-15 22:30 377 (2020) 0 (2016) 85 0 0 0 2 201 269 356
2021-02-15 21:30 377 (2020) 0 (2016) 85 0 0 0 2 201 269 356
2021-02-15 20:30 377 (2020) 0 (2016) 85 0 0 0 2 201 269 356
2021-02-15 19:30 377 (2020) 0 (2016) 85 0 0 0 2 201 269 356
2021-02-15 18:30 377 (2020) 0 (2016) 85 0 0 0 2 201 269 356
2021-02-15 17:30 377 (2020) 0 (2016) 85 0 0 0 2 201 269 356
2021-02-15 16:30 377 (2020) 0 (2016) 85 0 0 0 2 201 269 356
2021-02-15 15:30 377 (2020) 0 (2016) 85 0 0 0 2 201 269 356
2021-02-15 14:30 377 (2020) 0 (2016) 85 0 0 0 2 201 269 356
2021-02-15 13:30 377 (2020) 0 (2016) 85 0 0 0 2 201 269 356
2021-02-15 12:30 377 (2020) 0 (2016) 85 0 0 0 2 201 269 356
2021-02-15 11:30 377 (2020) 0 (2016) 85 0 0 0 2 201 269 356
2021-02-15 10:30 377 (2020) 0 (2016) 85 0 0 0 2 201 269 356
2021-02-15 09:30 0.71 5 377 (2020) 0 (2016) 85 0 0 0 2 201 269 356
2021-02-15 08:30 0.38 1 377 (2020) 0 (2016) 85 0 0 0 2 201 269 356
2021-02-15 07:30 0.59 3 377 (2020) 0 (2016) 85 0 0 0 2 201 269 356
2021-02-15 06:30 0.50 2 377 (2020) 0 (2016) 85 0 0 0 2 201 269 356
2021-02-15 05:30 0.77 7 377 (2020) 0 (2016) 85 0 0 0 2 201 269 356
2021-02-15 04:30 0.76 6 377 (2020) 0 (2016) 85 0 0 0 2 201 269 356
2021-02-15 03:30 0.67 4 377 (2020) 0 (2016) 85 0 0 0 2 201 269 356
2021-02-15 02:30 0.60 3 377 (2020) 0 (2016) 85 0 0 0 2 201 269 356
2021-02-15 01:30 0.53 2 377 (2020) 0 (2016) 85 0 0 0 2 201 269 356
2021-02-15 00:30 0.72 5 377 (2020) 0 (2016) 85 0 0 0 2 201 269 356
2021-02-14 23:30 0.73 6 681 (2020) 0 (2016) 145 0 0 0 1 330 467 640
2021-02-14 22:30 0.68 5 681 (2020) 0 (2016) 145 0 0 0 1 330 467 640
2021-02-14 21:30 0.70 5 681 (2020) 0 (2016) 145 0 0 0 1 330 467 640
2021-02-14 20:30 0.69 5 681 (2020) 0 (2016) 145 0 0 0 1 330 467 640
2021-02-14 19:30 0.70 5 681 (2020) 0 (2016) 145 0 0 0 1 330 467 640
2021-02-14 18:30 0.70 5 681 (2020) 0 (2016) 145 0 0 0 1 330 467 640
2021-02-14 17:30 0.69 5 681 (2020) 0 (2016) 145 0 0 0 1 330 467 640
2021-02-14 16:30 0.71 5 681 (2020) 0 (2016) 145 0 0 0 1 330 467 640
2021-02-14 15:30 0.70 5 681 (2020) 0 (2016) 145 0 0 0 1 330 467 640
2021-02-14 14:30 0.87 10 681 (2020) 0 (2016) 145 0 0 0 1 330 467 640
2021-02-14 13:30 0.66 4 681 (2020) 0 (2016) 145 0 0 0 1 330 467 640
2021-02-14 12:30 0.66 4 681 (2020) 0 (2016) 145 0 0 0 1 330 467 640
2021-02-14 11:30 0.74 6 681 (2020) 0 (2016) 145 0 0 0 1 330 467 640
2021-02-14 10:30 0.66 4 681 (2020) 0 (2016) 145 0 0 0 1 330 467 640
2021-02-14 09:30 0.72 5 681 (2020) 0 (2016) 145 0 0 0 1 330 467 640
2021-02-14 08:30 0.81 8 681 (2020) 0 (2016) 145 0 0 0 1 330 467 640
2021-02-14 07:30 0.69 5 681 (2020) 0 (2016) 145 0 0 0 1 330 467 640
2021-02-14 06:30 0.71 5 681 (2020) 0 (2016) 145 0 0 0 1 330 467 640
2021-02-14 05:30 0.72 5 681 (2020) 0 (2016) 145 0 0 0 1 330 467 640
2021-02-14 04:30 0.71 5 681 (2020) 0 (2016) 145 0 0 0 1 330 467 640
2021-02-14 03:30 0.71 5 681 (2020) 0 (2016) 145 0 0 0 1 330 467 640
2021-02-14 02:30 0.71 5 681 (2020) 0 (2016) 145 0 0 0 1 330 467 640
2021-02-14 01:30 0.72 5 681 (2020) 0 (2016) 145 0 0 0 1 330 467 640
2021-02-14 00:30 0.72 5 681 (2020) 0 (2016) 145 0 0 0 1 330 467 640
2021-02-13 23:30 0.72 5 1200 (2019) 0 (2016) 273 0 0 0 1 589 930 1200
2021-02-13 22:30 0.71 5 1200 (2019) 0 (2016) 273 0 0 0 1 589 930 1200
2021-02-13 21:30 0.72 5 1200 (2019) 0 (2016) 273 0 0 0 1 589 930 1200
2021-02-13 20:30 0.72 5 1200 (2019) 0 (2016) 273 0 0 0 1 589 930 1200
2021-02-13 19:30 0.70 5 1200 (2019) 0 (2016) 273 0 0 0 1 589 930 1200
2021-02-13 18:30 0.71 5 1200 (2019) 0 (2016) 273 0 0 0 1 589 930 1200
2021-02-13 17:30 0.64 4 1200 (2019) 0 (2016) 273 0 0 0 1 589 930 1200
2021-02-13 16:30 0.69 5 1200 (2019) 0 (2016) 273 0 0 0 1 589 930 1200
2021-02-13 15:30 0.64 4 1200 (2019) 0 (2016) 273 0 0 0 1 589 930 1200
2021-02-13 14:30 0.69 5 1200 (2019) 0 (2016) 273 0 0 0 1 589 930 1200
2021-02-13 13:30 0.72 5 1200 (2019) 0 (2016) 273 0 0 0 1 589 930 1200
2021-02-13 12:30 0.66 4 1200 (2019) 0 (2016) 273 0 0 0 1 589 930 1200
2021-02-13 11:30 0.68 5 1200 (2019) 0 (2016) 273 0 0 0 1 589 930 1200
2021-02-13 10:30 0.70 5 1200 (2019) 0 (2016) 273 0 0 0 1 589 930 1200
2021-02-13 09:30 0.72 5 1200 (2019) 0 (2016) 273 0 0 0 1 589 930 1200
2021-02-13 08:30 0.73 6 1200 (2019) 0 (2016) 273 0 0 0 1 589 930 1200
2021-02-13 07:30 0.73 6 1200 (2019) 0 (2016) 273 0 0 0 1 589 930 1200
2021-02-13 06:30 0.68 5 1200 (2019) 0 (2016) 273 0 0 0 1 589 930 1200
2021-02-13 05:30 0.73 6 1200 (2019) 0 (2016) 273 0 0 0 1 589 930 1200
2021-02-13 04:30 0.71 5 1200 (2019) 0 (2016) 273 0 0 0 1 589 930 1200
2021-02-13 03:30 0.65 4 1200 (2019) 0 (2016) 273 0 0 0 1 589 930 1200
2021-02-13 02:30 0.73 6 1200 (2019) 0 (2016) 273 0 0 0 1 589 930 1200
2021-02-13 01:30 0.73 6 1200 (2019) 0 (2016) 273 0 0 0 1 589 930 1200
2021-02-13 00:30 0.74 6 1200 (2019) 0 (2016) 273 0 0 0 1 589 930 1200
2021-02-12 23:30 0.74 6 1910 (2009) 0 (2017) 348 0 0 0 1 203 906 1910
2021-02-12 22:30 0.74 6 1910 (2009) 0 (2017) 348 0 0 0 1 203 906 1910
2021-02-12 21:30 0.74 6 1910 (2009) 0 (2017) 348 0 0 0 1 203 906 1910
2021-02-12 20:30 0.74 6 1910 (2009) 0 (2017) 348 0 0 0 1 203 906 1910
2021-02-12 19:30 0.74 6 1910 (2009) 0 (2017) 348 0 0 0 1 203 906 1910
2021-02-12 18:30 0.74 6 1910 (2009) 0 (2017) 348 0 0 0 1 203 906 1910
2021-02-12 17:30 0.74 6 1910 (2009) 0 (2017) 348 0 0 0 1 203 906 1910
2021-02-12 16:30 0.74 6 1910 (2009) 0 (2017) 348 0 0 0 1 203 906 1910
2021-02-12 15:30 0.68 5 1910 (2009) 0 (2017) 348 0 0 0 1 203 906 1910
2021-02-12 14:30 0.74 6 1910 (2009) 0 (2017) 348 0 0 0 1 203 906 1910
2021-02-12 13:30 0.71 5 1910 (2009) 0 (2017) 348 0 0 0 1 203 906 1910
2021-02-12 12:30 0.75 6 1910 (2009) 0 (2017) 348 0 0 0 1 203 906 1910
2021-02-12 11:30 0.75 6 1910 (2009) 0 (2017) 348 0 0 0 1 203 906 1910
2021-02-12 10:30 0.67 4 1910 (2009) 0 (2017) 348 0 0 0 1 203 906 1910
2021-02-12 09:30 0.73 7 1910 (2009) 0 (2017) 348 0 0 0 1 203 906 1910
2021-02-12 08:30 0.72 7 1910 (2009) 0 (2017) 348 0 0 0 1 203 906 1910
2021-02-12 07:30 0.75 8 1910 (2009) 0 (2017) 348 0 0 0 1 203 906 1910
2021-02-12 06:30 0.68 6 1910 (2009) 0 (2017) 348 0 0 0 1 203 906 1910
2021-02-12 05:30 0.75 8 1910 (2009) 0 (2017) 348 0 0 0 1 203 906 1910
2021-02-12 04:30 0.70 6 1910 (2009) 0 (2017) 348 0 0 0 1 203 906 1910
2021-02-12 03:30 0.76 8 1910 (2009) 0 (2017) 348 0 0 0 1 203 906 1910
2021-02-12 02:30 0.75 8 1910 (2009) 0 (2017) 348 0 0 0 1 203 906 1910
2021-02-12 01:30 0.76 8 1910 (2009) 0 (2017) 348 0 0 0 1 203 906 1910
2021-02-12 00:30 0.76 8 1910 (2009) 0 (2017) 348 0 0 0 1 203 906 1910
2021-02-11 23:30 0.76 8 1510 (2009) 0 (2017) 171 0 0 0 0 167 205 1130
2021-02-11 22:30 0.76 8 1510 (2009) 0 (2017) 171 0 0 0 0 167 205 1130
2021-02-11 21:30 0.76 8 1510 (2009) 0 (2017) 171 0 0 0 0 167 205 1130
2021-02-11 20:30 0.77 8 1510 (2009) 0 (2017) 171 0 0 0 0 167 205 1130
2021-02-11 19:30 0.76 8 1510 (2009) 0 (2017) 171 0 0 0 0 167 205 1130
2021-02-11 18:30 0.77 8 1510 (2009) 0 (2017) 171 0 0 0 0 167 205 1130
2021-02-11 17:30 0.77 8 1510 (2009) 0 (2017) 171 0 0 0 0 167 205 1130
2021-02-11 16:30 0.77 8 1510 (2009) 0 (2017) 171 0 0 0 0 167 205 1130
2021-02-11 15:30 0.78 9 1510 (2009) 0 (2017) 171 0 0 0 0 167 205 1130
2021-02-11 14:30 0.78 9 1510 (2009) 0 (2017) 171 0 0 0 0 167 205 1130
2021-02-11 13:30 0.78 9 1510 (2009) 0 (2017) 171 0 0 0 0 167 205 1130
2021-02-11 12:30 0.78 9 1510 (2009) 0 (2017) 171 0 0 0 0 167 205 1130
2021-02-11 11:30 0.78 9 1510 (2009) 0 (2017) 171 0 0 0 0 167 205 1130
2021-02-11 10:30 0.79 9 1510 (2009) 0 (2017) 171 0 0 0 0 167 205 1130
2021-02-11 09:30 0.79 9 1510 (2009) 0 (2017) 171 0 0 0 0 167 205 1130
2021-02-11 08:30 0.79 9 1510 (2009) 0 (2017) 171 0 0 0 0 167 205 1130
2021-02-11 07:30 0.80 9 1510 (2009) 0 (2017) 171 0 0 0 0 167 205 1130
2021-02-11 06:30 0.80 9 1510 (2009) 0 (2017) 171 0 0 0 0 167 205 1130
2021-02-11 05:30 0.80 9 1510 (2009) 0 (2017) 171 0 0 0 0 167 205 1130
2021-02-11 04:30 0.81 10 1510 (2009) 0 (2017) 171 0 0 0 0 167 205 1130
2021-02-11 03:30 0.81 10 1510 (2009) 0 (2017) 171 0 0 0 0 167 205 1130
2021-02-11 02:30 0.81 10 1510 (2009) 0 (2017) 171 0 0 0 0 167 205 1130
2021-02-11 01:30 0.82 10 1510 (2009) 0 (2017) 171 0 0 0 0 167 205 1130
2021-02-11 00:30 0.83 10 1510 (2009) 0 (2017) 171 0 0 0 0 167 205 1130
2021-02-10 23:30 0.83 10 336 (2019) 0 (2017) 59 0 0 0 0 107 133 284
2021-02-10 22:30 0.84 11 336 (2019) 0 (2017) 59 0 0 0 0 107 133 284
2021-02-10 21:30 0.84 11 336 (2019) 0 (2017) 59 0 0 0 0 107 133 284
2021-02-10 20:30 0.85 11 336 (2019) 0 (2017) 59 0 0 0 0 107 133 284
2021-02-10 19:30 0.86 12 336 (2019) 0 (2017) 59 0 0 0 0 107 133 284
2021-02-10 18:30 0.87 12 336 (2019) 0 (2017) 59 0 0 0 0 107 133 284
2021-02-10 17:30 0.85 11 336 (2019) 0 (2017) 59 0 0 0 0 107 133 284
2021-02-10 16:30 0.85 11 336 (2019) 0 (2017) 59 0 0 0 0 107 133 284
2021-02-10 15:30 0.89 13 336 (2019) 0 (2017) 59 0 0 0 0 107 133 284
2021-02-10 14:30 0.90 13 336 (2019) 0 (2017) 59 0 0 0 0 107 133 284
2021-02-10 13:30 0.88 12 336 (2019) 0 (2017) 59 0 0 0 0 107 133 284
2021-02-10 12:30 0.91 14 336 (2019) 0 (2017) 59 0 0 0 0 107 133 284
2021-02-10 11:30 0.92 14 336 (2019) 0 (2017) 59 0 0 0 0 107 133 284
2021-02-10 10:30 0.92 14 336 (2019) 0 (2017) 59 0 0 0 0 107 133 284
2021-02-10 09:30 0.94 15 336 (2019) 0 (2017) 59 0 0 0 0 107 133 284
2021-02-10 08:30 0.94 15 336 (2019) 0 (2017) 59 0 0 0 0 107 133 284
2021-02-10 07:30 0.95 16 336 (2019) 0 (2017) 59 0 0 0 0 107 133 284
2021-02-10 06:30 0.96 16 336 (2019) 0 (2017) 59 0 0 0 0 107 133 284
2021-02-10 05:30 0.97 17 336 (2019) 0 (2017) 59 0 0 0 0 107 133 284
2021-02-10 04:30 0.98 17 336 (2019) 0 (2017) 59 0 0 0 0 107 133 284
2021-02-10 03:30 0.99 18 336 (2019) 0 (2017) 59 0 0 0 0 107 133 284
2021-02-10 02:30 1.00 18 336 (2019) 0 (2017) 59 0 0 0 0 107 133 284
2021-02-10 01:30 1.01 19 336 (2019) 0 (2017) 59 0 0 0 0 107 133 284
2021-02-10 00:30 1.01 19 336 (2019) 0 (2017) 59 0 0 0 0 107 133 284
2021-02-09 23:30 1.02 19 725 (2019) 0 (2017) 93 0 0 0 0 106 166 572
2021-02-09 22:30 1.03 20 725 (2019) 0 (2017) 93 0 0 0 0 106 166 572
2021-02-09 21:30 1.04 21 725 (2019) 0 (2017) 93 0 0 0 0 106 166 572
2021-02-09 20:30 1.05 21 725 (2019) 0 (2017) 93 0 0 0 0 106 166 572
2021-02-09 19:30 1.06 22 725 (2019) 0 (2017) 93 0 0 0 0 106 166 572
2021-02-09 18:30 1.07 22 725 (2019) 0 (2017) 93 0 0 0 0 106 166 572
2021-02-09 17:30 1.08 23 725 (2019) 0 (2017) 93 0 0 0 0 106 166 572
2021-02-09 16:30 1.08 23 725 (2019) 0 (2017) 93 0 0 0 0 106 166 572
2021-02-09 15:30 1.09 24 725 (2019) 0 (2017) 93 0 0 0 0 106 166 572
2021-02-09 14:30 1.10 24 725 (2019) 0 (2017) 93 0 0 0 0 106 166 572
2021-02-09 13:30 1.11 25 725 (2019) 0 (2017) 93 0 0 0 0 106 166 572
2021-02-09 12:30 1.12 26 725 (2019) 0 (2017) 93 0 0 0 0 106 166 572
2021-02-09 11:30 1.13 26 725 (2019) 0 (2017) 93 0 0 0 0 106 166 572
2021-02-09 10:30 1.09 24 725 (2019) 0 (2017) 93 0 0 0 0 106 166 572
2021-02-09 09:30 1.14 27 725 (2019) 0 (2017) 93 0 0 0 0 106 166 572
2021-02-09 08:30 1.15 28 725 (2019) 0 (2017) 93 0 0 0 0 106 166 572
2021-02-09 07:30 1.12 26 725 (2019) 0 (2017) 93 0 0 0 0 106 166 572
2021-02-09 06:30 1.17 29 725 (2019) 0 (2017) 93 0 0 0 0 106 166 572
2021-02-09 05:30 1.16 29 725 (2019) 0 (2017) 93 0 0 0 0 106 166 572
2021-02-09 04:30 1.13 26 725 (2019) 0 (2017) 93 0 0 0 0 106 166 572
2021-02-09 03:30 1.19 31 725 (2019) 0 (2017) 93 0 0 0 0 106 166 572
2021-02-09 02:30 1.15 28 725 (2019) 0 (2017) 93 0 0 0 0 106 166 572
2021-02-09 01:30 1.15 28 725 (2019) 0 (2017) 93 0 0 0 0 106 166 572
2021-02-09 00:30 1.19 31 725 (2019) 0 (2017) 93 0 0 0 0 106 166 572
2021-02-08 23:30 1.17 29 2390 (2019) 0 (2017) 241 0 0 0 0 148 219 1750
2021-02-08 22:30 1.23 34 2390 (2019) 0 (2017) 241 0 0 0 0 148 219 1750
2021-02-08 21:30 1.20 32 2390 (2019) 0 (2017) 241 0 0 0 0 148 219 1750
2021-02-08 20:30 1.23 34 2390 (2019) 0 (2017) 241 0 0 0 0 148 219 1750
2021-02-08 19:30 1.23 34 2390 (2019) 0 (2017) 241 0 0 0 0 148 219 1750
2021-02-08 18:30 1.27 38 2390 (2019) 0 (2017) 241 0 0 0 0 148 219 1750
2021-02-08 17:30 1.27 38 2390 (2019) 0 (2017) 241 0 0 0 0 148 219 1750
2021-02-08 16:30 1.28 39 2390 (2019) 0 (2017) 241 0 0 0 0 148 219 1750
2021-02-08 15:30 1.29 40 2390 (2019) 0 (2017) 241 0 0 0 0 148 219 1750
2021-02-08 14:30 1.30 41 2390 (2019) 0 (2017) 241 0 0 0 0 148 219 1750
2021-02-08 13:30 1.29 40 2390 (2019) 0 (2017) 241 0 0 0 0 148 219 1750
2021-02-08 12:30 1.32 43 2390 (2019) 0 (2017) 241 0 0 0 0 148 219 1750
2021-02-08 11:30 1.32 43 2390 (2019) 0 (2017) 241 0 0 0 0 148 219 1750
2021-02-08 10:30 1.32 43 2390 (2019) 0 (2017) 241 0 0 0 0 148 219 1750
2021-02-08 09:30 1.34 45 2390 (2019) 0 (2017) 241 0 0 0 0 148 219 1750
2021-02-08 08:30 1.35 46 2390 (2019) 0 (2017) 241 0 0 0 0 148 219 1750
2021-02-08 07:30 1.36 47 2390 (2019) 0 (2017) 241 0 0 0 0 148 219 1750
2021-02-08 06:30 1.36 47 2390 (2019) 0 (2017) 241 0 0 0 0 148 219 1750
2021-02-08 05:30 1.38 49 2390 (2019) 0 (2017) 241 0 0 0 0 148 219 1750
2021-02-08 04:30 1.38 49 2390 (2019) 0 (2017) 241 0 0 0 0 148 219 1750
2021-02-08 03:30 1.40 52 2390 (2019) 0 (2017) 241 0 0 0 0 148 219 1750
2021-02-08 02:30 1.40 52 2390 (2019) 0 (2017) 241 0 0 0 0 148 219 1750
2021-02-08 01:30 1.41 53 2390 (2019) 0 (2017) 241 0 0 0 0 148 219 1750
2021-02-08 00:30 1.42 54 2390 (2019) 0 (2017) 241 0 0 0 0 148 219 1750
2021-02-07 23:30 1.42 54 1800 (2019) 0 (2017) 210 0 0 0 0 213 310 1380
2021-02-07 22:30 1.44 56 1800 (2019) 0 (2017) 210 0 0 0 0 213 310 1380
2021-02-07 21:30 1.44 56 1800 (2019) 0 (2017) 210 0 0 0 0 213 310 1380
2021-02-07 20:30 1.45 58 1800 (2019) 0 (2017) 210 0 0 0 0 213 310 1380
2021-02-07 19:30 1.45 58 1800 (2019) 0 (2017) 210 0 0 0 0 213 310 1380
2021-02-07 18:30 1.46 59 1800 (2019) 0 (2017) 210 0 0 0 0 213 310 1380
2021-02-07 17:30 1.46 59 1800 (2019) 0 (2017) 210 0 0 0 0 213 310 1380
2021-02-07 16:30 1.48 61 1800 (2019) 0 (2017) 210 0 0 0 0 213 310 1380
2021-02-07 15:30 1.50 64 1800 (2019) 0 (2017) 210 0 0 0 0 213 310 1380
2021-02-07 14:30 1.50 64 1800 (2019) 0 (2017) 210 0 0 0 0 213 310 1380
2021-02-07 13:30 1.50 64 1800 (2019) 0 (2017) 210 0 0 0 0 213 310 1380
2021-02-07 12:30 1.51 65 1800 (2019) 0 (2017) 210 0 0 0 0 213 310 1380
2021-02-07 10:30 1.55 71 1800 (2019) 0 (2017) 210 0 0 0 0 213 310 1380
2021-02-07 09:30 1.55 71 1800 (2019) 0 (2017) 210 0 0 0 0 213 310 1380
2021-02-07 08:30 1.56 72 1800 (2019) 0 (2017) 210 0 0 0 0 213 310 1380
2021-02-07 07:30 1.56 72 1800 (2019) 0 (2017) 210 0 0 0 0 213 310 1380
2021-02-07 06:30 1.59 77 1800 (2019) 0 (2017) 210 0 0 0 0 213 310 1380
2021-02-07 05:30 1.60 78 1800 (2019) 0 (2017) 210 0 0 0 0 213 310 1380
2021-02-07 04:30 1.61 80 1800 (2019) 0 (2017) 210 0 0 0 0 213 310 1380
2021-02-07 03:30 1.62 82 1800 (2019) 0 (2017) 210 0 0 0 0 213 310 1380
2021-02-07 02:30 1.62 82 1800 (2019) 0 (2017) 210 0 0 0 0 213 310 1380
2021-02-07 01:30 1.64 85 1800 (2019) 0 (2017) 210 0 0 0 0 213 310 1380
2021-02-07 00:30 1.65 86 1800 (2019) 0 (2017) 210 0 0 0 0 213 310 1380
2021-02-06 23:30 1.68 92 312 (2010) 0 (2017) 50 0 0 0 0 86 134 268
2021-02-06 22:30 1.68 92 312 (2010) 0 (2017) 50 0 0 0 0 86 134 268
2021-02-06 21:30 1.68 92 312 (2010) 0 (2017) 50 0 0 0 0 86 134 268
2021-02-06 20:30 1.71 97 312 (2010) 0 (2017) 50 0 0 0 0 86 134 268
2021-02-06 19:30 1.72 99 312 (2010) 0 (2017) 50 0 0 0 0 86 134 268
2021-02-06 18:30 1.73 100 312 (2010) 0 (2017) 50 0 0 0 0 86 134 268
2021-02-06 17:30 1.73 100 312 (2010) 0 (2017) 50 0 0 0 0 86 134 268
2021-02-06 16:30 1.77 108 312 (2010) 0 (2017) 50 0 0 0 0 86 134 268
2021-02-06 15:30 1.77 108 312 (2010) 0 (2017) 50 0 0 0 0 86 134 268
2021-02-06 14:30 1.79 112 312 (2010) 0 (2017) 50 0 0 0 0 86 134 268
2021-02-06 13:30 1.79 112 312 (2010) 0 (2017) 50 0 0 0 0 86 134 268
2021-02-06 12:30 1.80 114 312 (2010) 0 (2017) 50 0 0 0 0 86 134 268
2021-02-06 11:30 1.83 120 312 (2010) 0 (2017) 50 0 0 0 0 86 134 268
2021-02-06 10:30 1.83 120 312 (2010) 0 (2017) 50 0 0 0 0 86 134 268
2021-02-06 09:30 1.86 126 312 (2010) 0 (2017) 50 0 0 0 0 86 134 268
2021-02-06 08:30 1.85 124 312 (2010) 0 (2017) 50 0 0 0 0 86 134 268
2021-02-06 07:30 1.88 131 312 (2010) 0 (2017) 50 0 0 0 0 86 134 268
2021-02-06 06:30 1.88 131 312 (2010) 0 (2017) 50 0 0 0 0 86 134 268
2021-02-06 05:30 1.90 135 312 (2010) 0 (2017) 50 0 0 0 0 86 134 268
2021-02-06 04:30 1.93 142 312 (2010) 0 (2017) 50 0 0 0 0 86 134 268
2021-02-06 03:30 1.94 144 312 (2010) 0 (2017) 50 0 0 0 0 86 134 268
2021-02-06 02:30 1.94 144 312 (2010) 0 (2017) 50 0 0 0 0 86 134 268
2021-02-06 01:30 1.96 149 312 (2010) 0 (2017) 50 0 0 0 0 86 134 268
2021-02-06 00:30 1.97 152 312 (2010) 0 (2017) 50 0 0 0 0 86 134 268
2021-02-05 23:30 1.98 154 328 (2012) 0 (2017) 34 0 0 0 0 26 38 243
2021-02-05 22:30 1.99 157 328 (2012) 0 (2017) 34 0 0 0 0 26 38 243
2021-02-05 21:30 2.00 159 328 (2012) 0 (2017) 34 0 0 0 0 26 38 243
2021-02-05 20:30 2.02 164 328 (2012) 0 (2017) 34 0 0 0 0 26 38 243
2021-02-05 19:30 2.04 170 328 (2012) 0 (2017) 34 0 0 0 0 26 38 243
2021-02-05 18:30 2.03 167 328 (2012) 0 (2017) 34 0 0 0 0 26 38 243
2021-02-05 17:30 2.04 170 328 (2012) 0 (2017) 34 0 0 0 0 26 38 243
2021-02-05 16:30 2.06 175 328 (2012) 0 (2017) 34 0 0 0 0 26 38 243
2021-02-05 15:30 2.05 172 328 (2012) 0 (2017) 34 0 0 0 0 26 38 243
2021-02-05 14:30 2.05 172 328 (2012) 0 (2017) 34 0 0 0 0 26 38 243
2021-02-05 13:30 2.06 175 328 (2012) 0 (2017) 34 0 0 0 0 26 38 243
2021-02-05 12:30 2.06 175 328 (2012) 0 (2017) 34 0 0 0 0 26 38 243
2021-02-05 11:30 2.07 178 328 (2012) 0 (2017) 34 0 0 0 0 26 38 243
2021-02-05 10:30 2.08 180 328 (2012) 0 (2017) 34 0 0 0 0 26 38 243
2021-02-05 09:30 2.12 192 328 (2012) 0 (2017) 34 0 0 0 0 26 38 243
2021-02-05 08:30 2.13 195 328 (2012) 0 (2017) 34 0 0 0 0 26 38 243
2021-02-05 07:30 2.15 201 328 (2012) 0 (2017) 34 0 0 0 0 26 38 243
2021-02-05 06:30 2.15 201 328 (2012) 0 (2017) 34 0 0 0 0 26 38 243
2021-02-05 05:30 2.15 201 328 (2012) 0 (2017) 34 0 0 0 0 26 38 243
2021-02-05 04:30 2.16 204 328 (2012) 0 (2017) 34 0 0 0 0 26 38 243
2021-02-05 03:30 2.17 207 328 (2012) 0 (2017) 34 0 0 0 0 26 38 243
2021-02-05 02:30 2.18 210 328 (2012) 0 (2017) 34 0 0 0 0 26 38 243
2021-02-05 01:30 2.18 210 328 (2012) 0 (2017) 34 0 0 0 0 26 38 243
2021-02-05 00:30 2.18 210 328 (2012) 0 (2017) 34 0 0 0 0 26 38 243
2021-02-04 23:30 2.19 213 44 (2020) 0 (2017) 9 0 0 0 0 14 22 40
2021-02-04 22:30 2.22 222 44 (2020) 0 (2017) 9 0 0 0 0 14 22 40
2021-02-04 21:30 2.18 210 44 (2020) 0 (2017) 9 0 0 0 0 14 22 40
2021-02-04 20:30 2.22 222 44 (2020) 0 (2017) 9 0 0 0 0 14 22 40
2021-02-04 19:30 2.24 229 44 (2020) 0 (2017) 9 0 0 0 0 14 22 40
2021-02-04 18:30 2.25 232 44 (2020) 0 (2017) 9 0 0 0 0 14 22 40
2021-02-04 17:30 2.25 232 44 (2020) 0 (2017) 9 0 0 0 0 14 22 40
2021-02-04 16:30 2.23 226 44 (2020) 0 (2017) 9 0 0 0 0 14 22 40
2021-02-04 15:30 2.26 235 44 (2020) 0 (2017) 9 0 0 0 0 14 22 40
2021-02-04 14:30 2.25 232 44 (2020) 0 (2017) 9 0 0 0 0 14 22 40
2021-02-04 13:30 2.25 232 44 (2020) 0 (2017) 9 0 0 0 0 14 22 40
2021-02-04 12:30 2.25 232 44 (2020) 0 (2017) 9 0 0 0 0 14 22 40
2021-02-04 11:30 2.31 253 44 (2020) 0 (2017) 9 0 0 0 0 14 22 40
2021-02-04 09:30 2.33 260 44 (2020) 0 (2017) 9 0 0 0 0 14 22 40
2021-02-04 08:30 2.33 260 44 (2020) 0 (2017) 9 0 0 0 0 14 22 40
2021-02-04 07:30 2.35 267 44 (2020) 0 (2017) 9 0 0 0 0 14 22 40
2021-02-04 06:30 2.36 270 44 (2020) 0 (2017) 9 0 0 0 0 14 22 40
2021-02-04 05:30 2.36 270 44 (2020) 0 (2017) 9 0 0 0 0 14 22 40
2021-02-04 04:30 2.38 278 44 (2020) 0 (2017) 9 0 0 0 0 14 22 40
2021-02-04 03:30 2.38 278 44 (2020) 0 (2017) 9 0 0 0 0 14 22 40
2021-02-04 02:30 2.39 282 44 (2020) 0 (2017) 9 0 0 0 0 14 22 40
2021-02-04 01:30 2.39 282 44 (2020) 0 (2017) 9 0 0 0 0 14 22 40
2021-02-04 00:30 2.40 285 44 (2020) 0 (2017) 9 0 0 0 0 14 22 40
2021-02-03 23:30 2.42 293 60 (2020) 0 (2018) 11 0 0 0 1 25 35 54
2021-02-03 22:30 2.42 293 60 (2020) 0 (2018) 11 0 0 0 1 25 35 54
2021-02-03 21:30 2.44 301 60 (2020) 0 (2018) 11 0 0 0 1 25 35 54
2021-02-03 20:30 2.44 301 60 (2020) 0 (2018) 11 0 0 0 1 25 35 54
2021-02-03 19:30 2.48 317 60 (2020) 0 (2018) 11 0 0 0 1 25 35 54
2021-02-03 18:30 2.49 321 60 (2020) 0 (2018) 11 0 0 0 1 25 35 54
2021-02-03 17:30 2.48 317 60 (2020) 0 (2018) 11 0 0 0 1 25 35 54
2021-02-03 16:30 2.51 330 60 (2020) 0 (2018) 11 0 0 0 1 25 35 54
2021-02-03 15:30 2.52 334 60 (2020) 0 (2018) 11 0 0 0 1 25 35 54
2021-02-03 14:30 2.50 326 60 (2020) 0 (2018) 11 0 0 0 1 25 35 54
2021-02-03 13:30 2.54 343 60 (2020) 0 (2018) 11 0 0 0 1 25 35 54
2021-02-03 12:30 2.54 343 60 (2020) 0 (2018) 11 0 0 0 1 25 35 54
2021-02-03 11:30 2.56 351 60 (2020) 0 (2018) 11 0 0 0 1 25 35 54
2021-02-03 10:30 2.58 360 60 (2020) 0 (2018) 11 0 0 0 1 25 35 54
2021-02-03 09:30 2.59 365 60 (2020) 0 (2018) 11 0 0 0 1 25 35 54
2021-02-03 08:30 2.59 365 60 (2020) 0 (2018) 11 0 0 0 1 25 35 54
2021-02-03 07:30 2.60 369 60 (2020) 0 (2018) 11 0 0 0 1 25 35 54
2021-02-03 06:30 2.61 374 60 (2020) 0 (2018) 11 0 0 0 1 25 35 54
2021-02-03 05:30 2.63 383 60 (2020) 0 (2018) 11 0 0 0 1 25 35 54
2021-02-03 04:30 2.65 393 60 (2020) 0 (2018) 11 0 0 0 1 25 35 54
2021-02-03 03:30 2.64 388 60 (2020) 0 (2018) 11 0 0 0 1 25 35 54
2021-02-03 02:30 2.66 398 60 (2020) 0 (2018) 11 0 0 0 1 25 35 54
2021-02-03 01:30 2.67 402 60 (2020) 0 (2018) 11 0 0 0 1 25 35 54
2021-02-03 00:30 2.67 402 60 (2020) 0 (2018) 11 0 0 0 1 25 35 54
2021-02-02 23:30 2.69 412 77 (2020) 0 (2018) 17 0 0 0 1 40 58 73
2021-02-02 22:30 2.70 417 77 (2020) 0 (2018) 17 0 0 0 1 40 58 73
2021-02-02 21:30 2.72 427 77 (2020) 0 (2018) 17 0 0 0 1 40 58 73
2021-02-02 20:30 2.74 438 77 (2020) 0 (2018) 17 0 0 0 1 40 58 73
2021-02-02 19:30 2.76 448 77 (2020) 0 (2018) 17 0 0 0 1 40 58 73
2021-02-02 18:30 2.79 464 77 (2020) 0 (2018) 17 0 0 0 1 40 58 73
2021-02-02 17:30 2.79 464 77 (2020) 0 (2018) 17 0 0 0 1 40 58 73
2021-02-02 16:30 2.81 475 77 (2020) 0 (2018) 17 0 0 0 1 40 58 73
2021-02-02 15:30 2.83 486 77 (2020) 0 (2018) 17 0 0 0 1 40 58 73
2021-02-02 14:30 2.84 491 77 (2020) 0 (2018) 17 0 0 0 1 40 58 73
2021-02-02 13:30 2.85 497 77 (2020) 0 (2018) 17 0 0 0 1 40 58 73
2021-02-02 12:30 2.87 508 77 (2020) 0 (2018) 17 0 0 0 1 40 58 73
2021-02-02 11:30 2.89 520 77 (2020) 0 (2018) 17 0 0 0 1 40 58 73
2021-02-02 10:30 2.92 537 77 (2020) 0 (2018) 17 0 0 0 1 40 58 73
2021-02-02 09:30 2.92 537 77 (2020) 0 (2018) 17 0 0 0 1 40 58 73
2021-02-02 08:30 2.94 549 77 (2020) 0 (2018) 17 0 0 0 1 40 58 73
2021-02-02 07:30 2.96 562 77 (2020) 0 (2018) 17 0 0 0 1 40 58 73
2021-02-02 06:30 2.97 568 77 (2020) 0 (2018) 17 0 0 0 1 40 58 73
2021-02-02 05:30 2.99 580 77 (2020) 0 (2018) 17 0 0 0 1 40 58 73
2021-02-02 04:30 3.03 606 77 (2020) 0 (2018) 17 0 0 0 1 40 58 73
2021-02-02 03:30 3.07 632 77 (2020) 0 (2018) 17 0 0 0 1 40 58 73
2021-02-02 02:30 3.09 645 77 (2020) 0 (2018) 17 0 0 0 1 40 58 73
2021-02-02 01:30 3.12 666 77 (2020) 0 (2018) 17 0 0 0 1 40 58 73
2021-02-02 00:30 3.11 659 77 (2020) 0 (2018) 17 0 0 0 1 40 58 73
2021-02-01 23:30 3.17 701 192 (2013) 0 (2018) 31 0 0 0 1 55 81 162
2021-02-01 22:30 3.19 716 192 (2013) 0 (2018) 31 0 0 0 1 55 81 162
2021-02-01 21:30 3.22 738 192 (2013) 0 (2018) 31 0 0 0 1 55 81 162
2021-02-01 20:30 3.25 760 192 (2013) 0 (2018) 31 0 0 0 1 55 81 162
2021-02-01 19:30 3.27 776 192 (2013) 0 (2018) 31 0 0 0 1 55 81 162
2021-02-01 18:30 3.30 799 192 (2013) 0 (2018) 31 0 0 0 1 55 81 162
2021-02-01 17:30 3.34 831 192 (2013) 0 (2018) 31 0 0 0 1 55 81 162
2021-02-01 16:30 3.40 880 192 (2013) 0 (2018) 31 0 0 0 1 55 81 162
2021-02-01 15:30 3.41 889 192 (2013) 0 (2018) 31 0 0 0 1 55 81 162
2021-02-01 14:30 3.45 923 192 (2013) 0 (2018) 31 0 0 0 1 55 81 162
2021-02-01 13:30 3.49 958 192 (2013) 0 (2018) 31 0 0 0 1 55 81 162
2021-02-01 12:30 3.54 1000 192 (2013) 0 (2018) 31 0 0 0 1 55 81 162
2021-02-01 11:30 3.57 1030 192 (2013) 0 (2018) 31 0 0 0 1 55 81 162
2021-02-01 10:30 3.62 1080 192 (2013) 0 (2018) 31 0 0 0 1 55 81 162
2021-02-01 09:30 3.67 1130 192 (2013) 0 (2018) 31 0 0 0 1 55 81 162
2021-02-01 08:30 3.71 1170 192 (2013) 0 (2018) 31 0 0 0 1 55 81 162
2021-02-01 07:30 3.74 1200 192 (2013) 0 (2018) 31 0 0 0 1 55 81 162
2021-02-01 06:30 3.81 1270 192 (2013) 0 (2018) 31 0 0 0 1 55 81 162
2021-02-01 05:30 3.88 1350 192 (2013) 0 (2018) 31 0 0 0 1 55 81 162
2021-02-01 04:30 3.94 1410 192 (2013) 0 (2018) 31 0 0 0 1 55 81 162
2021-02-01 03:30 3.98 1450 192 (2013) 0 (2018) 31 0 0 0 1 55 81 162
2021-02-01 02:30 4.06 1540 192 (2013) 0 (2018) 31 0 0 0 1 55 81 162
2021-02-01 01:30 4.12 1600 192 (2013) 0 (2018) 31 0 0 0 1 55 81 162
2021-02-01 00:30 4.21 1690 192 (2013) 0 (2018) 31 0 0 0 1 55 81 162

A total of 731 rows are displayed for years 2009 through 2020.